createdAt,value
2023-02-09T00:00:02.416Z,58.87
2023-02-09T00:02:33.696Z,62.83
2023-02-09T00:05:02.333Z,57.83
2023-02-09T00:07:30.812Z,58.20
2023-02-09T00:10:00.408Z,57.93
2023-02-09T00:12:46.597Z,57.33
2023-02-09T00:15:15.078Z,43.37
2023-02-09T00:17:43.786Z,48.83
2023-02-09T00:20:12.647Z,58.27
2023-02-09T00:22:41.342Z,50.70
2023-02-09T00:25:11.014Z,47.17
2023-02-09T00:27:39.536Z,59.00
2023-02-09T00:30:08.942Z,56.87
2023-02-09T00:32:37.618Z,63.83
2023-02-09T00:35:07.859Z,50.37
2023-02-09T00:37:37.499Z,50.63
2023-02-09T00:40:06.695Z,57.00
2023-02-09T00:42:36.554Z,49.23
2023-02-09T00:45:05.341Z,50.13
2023-02-09T00:47:34.261Z,53.50
2023-02-09T00:50:06.642Z,45.10
2023-02-09T00:52:36.292Z,66.97
2023-02-09T00:55:04.875Z,61.23
2023-02-09T00:57:33.741Z,56.07
2023-02-09T01:00:03.933Z,61.17
2023-02-09T01:02:32.699Z,45.83
2023-02-09T01:05:01.605Z,55.30
2023-02-09T01:07:30.327Z,51.93
2023-02-09T01:10:00.301Z,44.77
2023-02-09T01:12:28.933Z,58.27
2023-02-09T01:14:57.345Z,48.63
2023-02-09T01:17:27.309Z,54.23
2023-02-09T01:19:56.153Z,53.37
2023-02-09T01:22:25.140Z,54.77
2023-02-09T01:24:53.388Z,59.27
2023-02-09T01:27:22.086Z,63.77
2023-02-09T01:29:50.487Z,49.50
2023-02-09T01:32:19.068Z,53.47
2023-02-09T01:34:51.811Z,48.47
2023-02-09T01:37:20.550Z,58.13
2023-02-09T01:39:49.026Z,65.20
2023-02-09T01:42:18.586Z,51.30
2023-02-09T01:45:17.139Z,60.33
2023-02-09T01:47:49.635Z,65.23
2023-02-09T01:50:19.553Z,57.97
2023-02-09T01:52:49.717Z,49.77
2023-02-09T01:55:21.426Z,68.53
2023-02-09T01:57:53.859Z,51.43
2023-02-09T02:00:24.300Z,45.37
2023-02-09T02:02:55.818Z,49.93
2023-02-09T02:05:27.794Z,56.60
2023-02-09T02:08:01.733Z,52.17
2023-02-09T02:10:30.611Z,59.50
2023-02-09T02:12:59.856Z,60.57
2023-02-09T02:15:31.994Z,50.50
2023-02-09T02:18:28.702Z,49.03
2023-02-09T02:21:33.465Z,67.87
2023-02-09T02:24:19.392Z,58.37
2023-02-09T02:26:56.868Z,62.53
2023-02-09T02:30:05.795Z,55.93
2023-02-09T02:32:47.670Z,55.27
2023-02-09T02:35:26.151Z,53.97
2023-02-09T02:38:03.235Z,50.20
2023-02-09T02:40:42.534Z,53.70
2023-02-09T02:43:21.852Z,54.73
2023-02-09T02:45:56.178Z,51.27
2023-02-09T02:48:33.980Z,50.00
2023-02-09T02:51:07.165Z,51.67
2023-02-09T02:53:38.170Z,49.43
2023-02-09T02:56:11.690Z,52.53
2023-02-09T02:58:42.652Z,48.00
2023-02-09T03:01:15.295Z,55.27
2023-02-09T03:03:47.568Z,53.53
2023-02-09T03:06:17.740Z,57.27
2023-02-09T03:08:54.326Z,47.90
2023-02-09T03:11:25.542Z,52.90
2023-02-09T03:14:19.290Z,48.03
2023-02-09T03:16:53.909Z,63.07
2023-02-09T03:19:36.816Z,51.63
2023-02-09T03:22:09.074Z,47.03
2023-02-09T03:24:42.159Z,60.70
2023-02-09T03:27:17.052Z,59.47
2023-02-09T03:29:48.848Z,56.60
2023-02-09T03:32:18.687Z,61.30
2023-02-09T03:34:49.135Z,53.80
2023-02-09T03:37:19.631Z,65.67
2023-02-09T03:39:48.172Z,55.70
2023-02-09T03:42:16.838Z,56.80
2023-02-09T03:44:45.235Z,50.27
2023-02-09T03:47:13.962Z,44.53
2023-02-09T03:49:43.247Z,62.80
2023-02-09T03:52:14.962Z,49.13
2023-02-09T03:54:43.560Z,57.90
2023-02-09T03:57:12.515Z,71.70
2023-02-09T03:59:41.507Z,64.07
2023-02-09T04:02:11.566Z,61.30
2023-02-09T04:04:39.800Z,64.40
2023-02-09T04:07:08.706Z,60.13
2023-02-09T04:09:38.568Z,51.67
2023-02-09T04:12:07.677Z,66.33
2023-02-09T04:14:35.933Z,70.07
2023-02-09T04:17:04.915Z,73.70
2023-02-09T04:19:33.194Z,60.53
2023-02-09T04:22:04.382Z,64.80
2023-02-09T04:24:32.533Z,73.73
2023-02-09T04:27:02.594Z,70.17
2023-02-09T04:29:30.951Z,66.00
2023-02-09T04:31:59.685Z,70.70
2023-02-09T04:34:28.333Z,66.63
2023-02-09T04:36:56.869Z,66.67
2023-02-09T04:39:25.087Z,56.53
2023-02-09T04:41:53.694Z,70.90
2023-02-09T04:44:23.298Z,72.03
2023-02-09T04:46:51.927Z,65.87
2023-02-09T04:49:20.145Z,72.73
2023-02-09T04:51:48.648Z,61.60
2023-02-09T04:54:16.776Z,68.23
2023-02-09T04:56:45.400Z,78.47
2023-02-09T04:59:31.062Z,63.87
2023-02-09T05:02:01.059Z,62.23
2023-02-09T05:04:29.389Z,69.73
2023-02-09T05:06:57.942Z,54.97
2023-02-09T05:09:26.149Z,68.73
2023-02-09T05:11:54.649Z,73.00
2023-02-09T05:14:22.826Z,72.57
2023-02-09T05:16:51.243Z,65.17
2023-02-09T05:19:20.808Z,68.03
2023-02-09T05:21:49.342Z,86.93
2023-02-09T05:24:17.578Z,70.90
2023-02-09T05:26:46.111Z,87.73
2023-02-09T05:29:14.624Z,69.23
2023-02-09T05:31:43.497Z,76.07
2023-02-09T05:34:12.072Z,84.63
2023-02-09T05:36:41.899Z,69.47
2023-02-09T05:39:10.273Z,71.70
2023-02-09T05:42:04.744Z,80.47
2023-02-09T05:44:33.033Z,72.23
2023-02-09T05:47:01.515Z,70.73
2023-02-09T05:49:29.963Z,75.53
2023-02-09T05:51:59.855Z,70.17
2023-02-09T05:54:28.817Z,87.70
2023-02-09T05:56:57.375Z,86.93
2023-02-09T05:59:25.575Z,71.37
2023-02-09T06:01:54.348Z,78.37
2023-02-09T06:04:22.727Z,79.83
2023-02-09T06:06:51.376Z,98.70
2023-02-09T06:09:21.636Z,82.63
2023-02-09T06:11:50.446Z,87.27
2023-02-09T06:14:19.368Z,64.73
2023-02-09T06:16:47.986Z,79.00
2023-02-09T06:19:18.283Z,76.37
2023-02-09T06:21:47.406Z,79.93
2023-02-09T06:24:16.723Z,84.73
2023-02-09T06:26:46.711Z,71.23
2023-02-09T06:29:15.155Z,68.77
2023-02-09T06:31:44.020Z,81.07
2023-02-09T06:34:12.406Z,76.57
2023-02-09T06:36:41.105Z,63.37
2023-02-09T06:39:10.088Z,73.80
2023-02-09T06:41:39.148Z,87.50
2023-02-09T06:44:08.882Z,71.40
2023-02-09T06:46:37.520Z,70.57
2023-02-09T06:49:06.068Z,69.57
2023-02-09T06:51:34.655Z,59.43
2023-02-09T06:54:03.128Z,63.07
2023-02-09T06:56:31.735Z,64.43
2023-02-09T06:58:59.984Z,61.37
2023-02-09T07:01:30.032Z,65.70
2023-02-09T07:03:58.293Z,59.97
2023-02-09T07:06:27.226Z,71.77
2023-02-09T07:08:55.616Z,65.00
2023-02-09T07:11:24.394Z,73.23
2023-02-09T07:13:52.671Z,60.87
2023-02-09T07:16:21.535Z,67.93
2023-02-09T07:18:51.316Z,62.10
2023-02-09T07:21:21.450Z,81.30
2023-02-09T07:23:50.925Z,73.17
2023-02-09T07:26:19.999Z,71.03
2023-02-09T07:28:48.863Z,55.43
2023-02-09T07:31:18.734Z,61.23
2023-02-09T07:33:47.869Z,74.53
2023-02-09T07:36:18.731Z,83.17
2023-02-09T07:38:47.493Z,69.47
2023-02-09T07:41:18.076Z,75.63
2023-02-09T07:43:47.143Z,71.67
2023-02-09T07:46:17.679Z,58.60
2023-02-09T07:48:46.291Z,63.63
2023-02-09T07:51:17.347Z,53.27
2023-02-09T07:53:45.762Z,65.17
2023-02-09T07:56:15.000Z,56.00
2023-02-09T07:58:43.389Z,59.43
2023-02-09T08:01:14.389Z,56.57
2023-02-09T08:03:45.552Z,60.43
2023-02-09T08:06:24.259Z,66.50
2023-02-09T08:08:54.621Z,73.80
2023-02-09T08:11:29.631Z,63.00
2023-02-09T08:14:00.817Z,75.33
2023-02-09T08:16:31.834Z,67.13
2023-02-09T08:19:03.837Z,56.57
2023-02-09T08:21:39.515Z,70.77
2023-02-09T08:24:09.017Z,61.23
2023-02-09T08:26:38.042Z,49.13
2023-02-09T08:29:08.810Z,53.30
2023-02-09T08:31:37.672Z,54.27
2023-02-09T08:34:06.077Z,62.97
2023-02-09T08:36:37.629Z,46.57
2023-02-09T08:39:07.298Z,61.03
2023-02-09T08:41:36.122Z,55.30
2023-02-09T08:44:04.517Z,51.17
2023-02-09T08:46:35.325Z,54.67
2023-02-09T08:49:03.622Z,47.60
2023-02-09T08:51:32.373Z,54.53
2023-02-09T08:54:01.897Z,65.40
2023-02-09T08:56:30.822Z,65.33
2023-02-09T08:58:59.088Z,79.17
2023-02-09T09:01:27.878Z,61.63
2023-02-09T09:03:56.326Z,49.93
2023-02-09T09:06:24.821Z,60.73
2023-02-09T09:09:12.944Z,65.17
2023-02-09T09:11:41.642Z,51.60
2023-02-09T09:14:09.917Z,58.27
2023-02-09T09:16:38.566Z,61.43
2023-02-09T09:19:07.038Z,54.87
2023-02-09T09:21:35.698Z,67.17
2023-02-09T09:24:04.091Z,52.10
2023-02-09T09:26:34.904Z,53.57
2023-02-09T09:29:03.349Z,71.57
2023-02-09T09:31:33.563Z,59.47
2023-02-09T09:34:01.936Z,46.40
2023-02-09T09:36:30.858Z,61.57
2023-02-09T09:39:00.027Z,49.97
2023-02-09T09:41:34.642Z,53.17
2023-02-09T09:44:06.283Z,67.57
2023-02-09T09:46:39.897Z,57.53
2023-02-09T09:49:11.635Z,52.23
2023-02-09T09:51:43.542Z,56.10
2023-02-09T09:54:17.574Z,51.40
2023-02-09T09:56:48.348Z,51.50
2023-02-09T09:59:20.346Z,51.23
2023-02-09T10:01:51.262Z,49.93
2023-02-09T10:04:20.974Z,58.40
2023-02-09T10:06:58.195Z,51.63
2023-02-09T10:09:41.220Z,54.30
2023-02-09T10:12:32.096Z,38.50
2023-02-09T10:15:00.592Z,47.20
2023-02-09T10:17:29.382Z,52.27
2023-02-09T10:20:03.093Z,39.83
2023-02-09T10:22:32.116Z,44.90
2023-02-09T10:25:00.893Z,44.33
2023-02-09T10:27:33.676Z,51.73
2023-02-09T10:30:27.996Z,44.60
2023-02-09T10:33:00.871Z,38.93
2023-02-09T10:35:36.506Z,38.63
2023-02-09T10:38:05.748Z,46.70
2023-02-09T10:40:36.213Z,41.37
2023-02-09T10:43:19.307Z,44.77
2023-02-09T10:45:52.370Z,47.23
2023-02-09T10:48:22.802Z,39.47
2023-02-09T10:50:53.851Z,41.40
2023-02-09T10:53:26.761Z,42.90
2023-02-09T10:56:02.434Z,39.73
2023-02-09T10:58:34.471Z,50.97
2023-02-09T11:01:19.152Z,52.03
2023-02-09T11:04:00.397Z,46.83
2023-02-09T11:06:29.824Z,41.13
2023-02-09T11:09:04.241Z,45.33
2023-02-09T11:11:34.743Z,37.07
2023-02-09T11:14:11.208Z,45.10
2023-02-09T11:16:50.190Z,47.43
2023-02-09T11:20:05.582Z,53.60
2023-02-09T11:22:56.024Z,43.63
2023-02-09T11:25:28.944Z,47.80
2023-02-09T11:28:26.358Z,44.03
2023-02-09T11:31:21.385Z,48.90
2023-02-09T11:34:01.630Z,54.67
2023-02-09T11:36:45.216Z,45.63
2023-02-09T11:39:23.190Z,51.30
2023-02-09T11:42:14.090Z,53.60
2023-02-09T11:44:48.361Z,52.00
2023-02-09T11:47:27.038Z,46.63
2023-02-09T11:49:57.809Z,47.13
2023-02-09T11:52:31.029Z,42.83
2023-02-09T11:55:03.223Z,53.83
2023-02-09T11:57:37.214Z,55.53
2023-02-09T12:00:08.220Z,48.70
2023-02-09T12:02:52.037Z,52.27
2023-02-09T12:05:22.370Z,50.17
2023-02-09T12:08:14.622Z,49.30
2023-02-09T12:10:49.381Z,51.83
2023-02-09T12:13:29.717Z,47.40
2023-02-09T12:16:01.447Z,53.07
2023-02-09T12:18:34.222Z,42.17
2023-02-09T12:21:05.443Z,50.07
2023-02-09T12:23:35.614Z,50.57
2023-02-09T12:26:28.720Z,43.57
2023-02-09T12:29:03.672Z,56.77
2023-02-09T12:31:53.830Z,52.47
2023-02-09T12:34:38.526Z,52.17
2023-02-09T12:37:28.720Z,41.33
2023-02-09T12:40:23.892Z,40.87
2023-02-09T12:43:38.839Z,41.50
2023-02-09T12:46:47.852Z,34.93
2023-02-09T12:49:21.875Z,35.97
2023-02-09T12:52:15.458Z,40.50
2023-02-09T12:54:47.356Z,35.23
2023-02-09T12:57:52.605Z,48.23
2023-02-09T13:00:45.523Z,28.70
2023-02-09T13:03:19.313Z,32.20
2023-02-09T13:05:50.168Z,32.97
2023-02-09T13:08:35.256Z,32.77
2023-02-09T13:11:07.677Z,38.97
2023-02-09T13:13:44.991Z,34.57
2023-02-09T13:16:50.095Z,36.90
2023-02-09T13:19:45.835Z,39.93
2023-02-09T13:22:27.996Z,32.47
2023-02-09T13:25:01.606Z,34.53
2023-02-09T13:27:31.031Z,29.70
2023-02-09T13:30:00.458Z,39.43
2023-02-09T13:32:43.080Z,37.47
2023-02-09T13:35:20.471Z,46.50
2023-02-09T13:37:53.257Z,36.30
2023-02-09T13:40:27.223Z,41.37
2023-02-09T13:43:00.136Z,37.67
2023-02-09T13:45:28.928Z,45.73
2023-02-09T13:47:59.287Z,41.50
2023-02-09T13:50:29.479Z,41.57
2023-02-09T13:53:09.409Z,47.13
2023-02-09T13:55:40.970Z,42.37
2023-02-09T13:58:15.830Z,40.93
2023-02-09T14:00:47.098Z,46.80
2023-02-09T14:03:32.970Z,50.50
2023-02-09T14:06:04.479Z,50.33
2023-02-09T14:08:34.212Z,41.30
2023-02-09T14:11:10.631Z,39.37
2023-02-09T14:13:46.744Z,45.43
2023-02-09T14:16:18.553Z,61.13
2023-02-09T14:18:49.968Z,44.03
2023-02-09T14:21:28.664Z,41.63
2023-02-09T14:24:19.879Z,50.03
2023-02-09T14:26:53.000Z,42.83
2023-02-09T14:29:25.151Z,36.67
2023-02-09T14:31:55.899Z,39.47
2023-02-09T14:34:31.173Z,48.97
2023-02-09T14:37:01.535Z,41.33
2023-02-09T14:39:31.886Z,50.83
2023-02-09T14:42:31.348Z,44.57
2023-02-09T14:45:01.544Z,39.43
2023-02-09T14:47:42.760Z,39.30
2023-02-09T14:50:13.852Z,41.70
2023-02-09T14:52:46.699Z,39.13
2023-02-09T14:55:18.948Z,41.57
2023-02-09T14:57:48.949Z,41.13
2023-02-09T15:00:24.965Z,46.37
2023-02-09T15:02:54.480Z,46.30
2023-02-09T15:05:26.013Z,36.73
2023-02-09T15:07:57.149Z,39.73
2023-02-09T15:10:30.556Z,39.63
2023-02-09T15:13:01.958Z,39.10
2023-02-09T15:15:31.447Z,40.40
2023-02-09T15:18:00.829Z,37.13
2023-02-09T15:20:31.467Z,38.10
2023-02-09T15:23:00.826Z,41.10
2023-02-09T15:25:30.115Z,35.83
2023-02-09T15:28:02.828Z,43.97
2023-02-09T15:30:34.960Z,44.27
2023-02-09T15:33:03.785Z,42.40
2023-02-09T15:35:32.286Z,39.87
2023-02-09T15:38:02.477Z,40.93
2023-02-09T15:40:51.313Z,43.17
2023-02-09T15:43:40.780Z,46.23
2023-02-09T15:46:28.080Z,50.47
2023-02-09T15:48:56.946Z,42.07
2023-02-09T15:51:27.334Z,43.50
2023-02-09T15:53:58.752Z,47.47
2023-02-09T15:56:27.144Z,35.73
2023-02-09T15:59:03.518Z,38.83
2023-02-09T16:01:34.038Z,41.90
2023-02-09T16:04:13.362Z,36.07
2023-02-09T16:06:45.040Z,50.03
2023-02-09T16:09:19.145Z,38.57
2023-02-09T16:11:48.520Z,40.70
2023-02-09T16:14:21.067Z,46.97
2023-02-09T16:16:50.249Z,42.63
2023-02-09T16:19:20.655Z,40.83
2023-02-09T16:21:52.396Z,49.50
2023-02-09T16:24:30.021Z,40.60
2023-02-09T16:27:00.027Z,48.47
2023-02-09T16:29:30.408Z,40.70
2023-02-09T16:31:58.713Z,44.23
2023-02-09T16:34:27.298Z,57.80
2023-02-09T16:36:55.683Z,47.07
2023-02-09T16:39:24.191Z,56.00
2023-02-09T16:41:53.520Z,45.70
2023-02-09T16:44:23.880Z,46.67
2023-02-09T16:46:55.835Z,43.67
2023-02-09T16:49:33.159Z,47.97
2023-02-09T16:52:06.264Z,43.70
2023-02-09T16:54:40.866Z,48.37
2023-02-09T16:57:14.923Z,44.83
2023-02-09T16:59:43.442Z,43.40
2023-02-09T17:02:31.331Z,49.20
2023-02-09T17:05:01.122Z,53.27
2023-02-09T17:07:39.710Z,49.70
2023-02-09T17:10:19.056Z,39.03
2023-02-09T17:12:47.314Z,53.33
2023-02-09T17:15:29.033Z,52.57
2023-02-09T17:18:04.720Z,44.90
2023-02-09T17:20:38.359Z,42.40
2023-02-09T17:23:06.848Z,42.30
2023-02-09T17:25:36.487Z,49.00
2023-02-09T17:28:05.592Z,46.10
2023-02-09T17:30:35.240Z,36.90
2023-02-09T17:33:07.361Z,42.53
2023-02-09T17:36:10.061Z,40.90
2023-02-09T17:38:30.835Z,49.07
2023-02-09T17:41:01.645Z,41.70
2023-02-09T17:43:29.945Z,36.20
2023-02-09T17:45:58.771Z,44.93
2023-02-09T17:48:30.203Z,45.33
2023-02-09T17:51:00.287Z,44.93
2023-02-09T17:53:32.796Z,58.50
2023-02-09T17:56:02.586Z,48.00
2023-02-09T17:58:30.946Z,46.80
2023-02-09T18:00:59.672Z,44.90
2023-02-09T18:03:29.613Z,55.30
2023-02-09T18:06:01.691Z,52.30
2023-02-09T18:08:32.051Z,43.63
2023-02-09T18:11:00.611Z,47.17
2023-02-09T18:13:28.873Z,48.80
2023-02-09T18:15:57.368Z,45.87
2023-02-09T18:18:25.648Z,49.13
2023-02-09T18:20:55.869Z,50.60
2023-02-09T18:23:24.359Z,47.57
2023-02-09T18:25:53.172Z,48.67
2023-02-09T18:28:21.666Z,53.20
2023-02-09T18:30:50.228Z,48.37
2023-02-09T18:33:19.294Z,46.23
2023-02-09T18:35:48.201Z,48.33
2023-02-09T18:38:18.531Z,39.70
2023-02-09T18:40:47.130Z,44.37
2023-02-09T18:43:15.976Z,47.87
2023-02-09T18:45:45.237Z,43.40
2023-02-09T18:48:13.855Z,48.67
2023-02-09T18:50:42.441Z,44.80
2023-02-09T18:53:12.768Z,40.80
2023-02-09T18:55:42.978Z,39.70
2023-02-09T18:58:12.543Z,40.43
2023-02-09T19:00:41.113Z,41.33
2023-02-09T19:03:09.353Z,46.60
2023-02-09T19:05:37.943Z,40.60
2023-02-09T19:08:07.324Z,32.57
2023-02-09T19:10:36.083Z,41.87
2023-02-09T19:13:05.833Z,40.87
2023-02-09T19:15:36.415Z,40.20
2023-02-09T19:18:05.102Z,48.37
2023-02-09T19:20:34.249Z,39.50
2023-02-09T19:23:04.014Z,40.20
2023-02-09T19:25:33.182Z,41.50
2023-02-09T19:28:01.529Z,45.50
2023-02-09T19:30:31.663Z,35.67
2023-02-09T19:33:00.242Z,42.27
2023-02-09T19:35:29.430Z,45.70
2023-02-09T19:37:58.995Z,35.70
2023-02-09T19:40:35.510Z,39.60
2023-02-09T19:43:04.733Z,45.27
2023-02-09T19:45:37.534Z,41.73
2023-02-09T19:48:08.062Z,49.20
2023-02-09T19:50:37.735Z,36.53
2023-02-09T19:53:06.997Z,50.03
2023-02-09T19:55:35.786Z,41.63
2023-02-09T19:58:04.613Z,35.60
2023-02-09T20:00:34.725Z,42.20
2023-02-09T20:03:03.010Z,44.13
2023-02-09T20:05:32.103Z,37.43
2023-02-09T20:08:00.325Z,44.43
2023-02-09T20:10:28.882Z,33.23
2023-02-09T20:12:57.149Z,36.03
2023-02-09T20:15:25.930Z,35.13
2023-02-09T20:17:55.830Z,41.57
2023-02-09T20:20:24.975Z,39.67
2023-02-09T20:22:53.217Z,35.70
2023-02-09T20:25:21.791Z,33.93
2023-02-09T20:27:50.777Z,32.97
2023-02-09T20:30:19.383Z,27.40
2023-02-09T20:32:47.646Z,31.67
2023-02-09T20:35:20.159Z,35.93
2023-02-09T20:37:48.436Z,24.50
2023-02-09T20:40:17.311Z,29.47
2023-02-09T20:43:03.571Z,31.57
2023-02-09T20:45:50.513Z,35.57
2023-02-09T20:48:19.517Z,26.87
2023-02-09T20:50:49.670Z,29.27
2023-02-09T20:53:18.240Z,30.37
2023-02-09T20:55:46.820Z,17.73
2023-02-09T20:58:15.094Z,23.37
2023-02-09T21:00:44.235Z,21.57
2023-02-09T21:03:12.689Z,21.60
2023-02-09T21:05:41.335Z,26.47
2023-02-09T21:08:11.133Z,29.23
2023-02-09T21:10:40.336Z,20.73
2023-02-09T21:13:10.166Z,22.17
2023-02-09T21:15:42.699Z,24.63
2023-02-09T21:18:10.873Z,17.13
2023-02-09T21:20:39.598Z,22.37
2023-02-09T21:23:07.945Z,25.43
2023-02-09T21:25:38.065Z,18.33
2023-02-09T21:28:06.582Z,27.97
2023-02-09T21:30:35.133Z,25.43
2023-02-09T21:33:03.429Z,23.03
2023-02-09T21:35:31.992Z,17.97
2023-02-09T21:38:00.188Z,23.43
2023-02-09T21:40:28.654Z,21.13
2023-02-09T21:42:58.282Z,20.73
2023-02-09T21:45:27.400Z,27.47
2023-02-09T21:47:55.789Z,25.40
2023-02-09T21:50:24.354Z,24.00
2023-02-09T21:52:54.651Z,21.67
2023-02-09T21:55:23.578Z,16.63
2023-02-09T21:57:51.918Z,26.53
2023-02-09T22:00:22.189Z,19.43
2023-02-09T22:02:53.716Z,19.83
2023-02-09T22:05:23.222Z,22.07
2023-02-09T22:07:51.664Z,25.03
2023-02-09T22:10:20.411Z,22.50
2023-02-09T22:12:48.679Z,19.80
2023-02-09T22:15:18.091Z,21.43
2023-02-09T22:17:48.393Z,17.70
2023-02-09T22:20:16.972Z,18.70
2023-02-09T22:22:46.143Z,20.23
2023-02-09T22:25:14.895Z,26.07
2023-02-09T22:27:43.182Z,27.93
2023-02-09T22:30:12.689Z,22.10
2023-02-09T22:32:41.031Z,26.97
2023-02-09T22:35:11.011Z,19.80
2023-02-09T22:37:39.178Z,24.73
2023-02-09T22:40:11.361Z,22.43
2023-02-09T22:42:39.799Z,24.90
2023-02-09T22:45:09.163Z,22.27
2023-02-09T22:47:39.745Z,27.27
2023-02-09T22:50:10.704Z,21.53
2023-02-09T22:52:38.865Z,31.80
2023-02-09T22:55:07.847Z,20.77
2023-02-09T22:57:36.265Z,19.30
2023-02-09T23:00:07.589Z,21.77
2023-02-09T23:02:36.021Z,21.63
2023-02-09T23:05:05.114Z,24.43
2023-02-09T23:07:34.708Z,28.53
2023-02-09T23:10:03.273Z,19.83
2023-02-09T23:12:31.522Z,18.50
2023-02-09T23:15:00.087Z,22.50
2023-02-09T23:17:28.298Z,20.13
2023-02-09T23:19:56.789Z,23.50
2023-02-09T23:22:25.034Z,20.37
2023-02-09T23:24:55.356Z,19.57
2023-02-09T23:27:23.868Z,24.17
2023-02-09T23:29:52.406Z,17.37
2023-02-09T23:32:21.008Z,22.10
2023-02-09T23:34:49.681Z,20.90
2023-02-09T23:37:19.239Z,23.80
2023-02-09T23:40:04.975Z,27.43
2023-02-09T23:42:33.249Z,23.10
2023-02-09T23:45:01.939Z,23.97
2023-02-09T23:47:30.362Z,23.20
2023-02-09T23:49:58.948Z,27.70
2023-02-09T23:52:27.237Z,20.93
2023-02-09T23:54:55.771Z,23.23
2023-02-09T23:57:25.484Z,23.43
2023-02-09T23:59:54.320Z,23.07
